Time;durP1;ratioP1;P1;durP2;ratioP2;P2;SDS_P1;SDS_P2;PMS_P1;PMS_P2;Temp;Humidity;BMP_temperature;BMP_pressure;BME280_temperature;BME280_humidity;BME280_pressure;Samples;Min_cycle;Max_cycle;Signal;HPM_P1;HPM_P2
2023/04/18 00:01:37;;;;;;;26.83;20.92;;;;;;;6.10;100.00;102500.13;5091847;28;20043;-58
2023/04/18 00:04:03;;;;;;;29.60;21.23;;;;;;;6.08;100.00;102502.59;5092967;28;20095;-57
2023/04/18 00:06:30;;;;;;;26.75;22.17;;;;;;;6.03;100.00;102506.47;5092460;28;20020;-57
2023/04/18 00:08:55;;;;;;;25.30;21.67;;;;;;;5.98;100.00;102492.44;5091996;28;20020;-57
2023/04/18 00:11:20;;;;;;;27.92;22.08;;;;;;;5.97;100.00;102494.88;5092879;28;20066;-58
2023/04/18 00:13:47;;;;;;;31.00;23.42;;;;;;;6.00;100.00;102497.69;5092762;28;20103;-57
2023/04/18 00:16:13;;;;;;;29.95;22.48;;;;;;;5.99;100.00;102490.75;5092469;28;20028;-57
2023/04/18 00:18:39;;;;;;;29.50;22.70;;;;;;;5.93;100.00;102491.19;5092529;28;20020;-57
2023/04/18 00:21:07;;;;;;;29.13;22.08;;;;;;;5.93;100.00;102486.94;5092478;28;20480;-58
2023/04/18 00:23:34;;;;;;;29.35;22.80;;;;;;;5.89;100.00;102484.94;5092145;28;20063;-57
2023/04/18 00:25:59;;;;;;;31.83;23.80;;;;;;;5.87;100.00;102494.16;5093024;28;20094;-58
2023/04/18 00:28:25;;;;;;;27.02;21.38;;;;;;;5.87;100.00;102486.47;5091722;28;20032;-57
2023/04/18 00:30:50;;;;;;;29.77;22.92;;;;;;;5.89;100.00;102491.72;5093007;28;20036;-58
2023/04/18 00:33:15;;;;;;;30.05;22.17;;;;;;;5.85;100.00;102482.94;5092474;28;20098;-57
2023/04/18 00:35:41;;;;;;;26.98;22.05;;;;;;;5.86;100.00;102486.38;5092135;28;20032;-57
2023/04/18 00:38:06;;;;;;;23.70;19.08;;;;;;;5.98;100.00;102495.00;5092449;28;20088;-58
2023/04/18 00:40:32;;;;;;;28.08;20.65;;;;;;;5.93;100.00;102491.19;5092641;28;20055;-57
2023/04/18 00:42:57;;;;;;;24.73;19.48;;;;;;;5.89;100.00;102490.03;5091982;28;20428;-58
2023/04/18 00:45:22;;;;;;;25.92;19.52;;;;;;;5.91;100.00;102493.63;5095268;28;20032;-57
2023/04/18 00:47:47;;;;;;;26.98;19.90;;;;;;;5.87;100.00;102489.03;5096381;28;20485;-57
2023/04/18 00:50:14;;;;;;;23.77;19.05;;;;;;;5.94;100.00;102490.41;5095969;28;20031;-58
2023/04/18 00:52:40;;;;;;;24.20;18.38;;;;;;;5.97;99.83;102492.31;5095795;28;20031;-57
2023/04/18 00:55:06;;;;;;;24.88;18.20;;;;;;;5.97;98.96;102485.50;5096156;28;20602;-58
2023/04/18 00:57:32;;;;;;;22.83;19.00;;;;;;;5.94;98.18;102480.16;5095361;28;20047;-57
2023/04/18 01:00:03;;;;;;;22.27;17.80;;;;;;;6.02;96.21;102491.00;5096337;28;20475;-57
2023/04/18 01:02:29;;;;;;;24.20;18.52;;;;;;;5.99;96.94;102484.00;5095688;28;20052;-57
2023/04/18 01:04:57;;;;;;;23.88;18.17;;;;;;;5.90;97.11;102481.59;5095597;28;20390;-57
2023/04/18 01:07:23;;;;;;;28.25;18.88;;;;;;;5.81;98.20;102480.00;5096103;28;20097;-57
2023/04/18 01:09:49;;;;;;;24.90;17.83;;;;;;;5.86;97.48;102488.91;5095869;28;20078;-58
2023/04/18 01:12:14;;;;;;;23.67;18.92;;;;;;;5.80;97.31;102486.81;5095711;28;20063;-57
2023/04/18 01:14:41;;;;;;;28.83;18.77;;;;;;;5.67;98.82;102487.53;5095742;28;20024;-57
2023/04/18 01:17:09;;;;;;;25.50;19.17;;;;;;;5.63;99.02;102488.09;5095773;28;20081;-57
2023/04/18 01:19:36;;;;;;;23.83;19.58;;;;;;;5.63;99.56;102487.19;5095033;28;20407;-57
2023/04/18 01:22:02;;;;;;;23.40;18.92;;;;;;;5.70;98.95;102489.44;5095986;28;20073;-57
2023/04/18 01:24:30;;;;;;;22.50;18.67;;;;;;;5.63;99.61;102476.94;5095438;28;20032;-57
2023/04/18 01:26:56;;;;;;;23.58;18.30;;;;;;;5.60;99.22;102482.72;5095236;28;20024;-57
2023/04/18 01:29:21;;;;;;;27.70;18.73;;;;;;;5.57;99.33;102480.81;5095416;28;20066;-57
2023/04/18 01:31:46;;;;;;;24.17;19.27;;;;;;;5.55;99.52;102482.38;5094965;28;20036;-57
2023/04/18 01:34:13;;;;;;;27.80;19.88;;;;;;;5.50;99.52;102468.38;5095896;28;20027;-57
2023/04/18 01:36:38;;;;;;;24.38;18.63;;;;;;;5.42;99.03;102470.34;5095326;28;20019;-57
2023/04/18 01:39:03;;;;;;;24.90;19.83;;;;;;;5.42;99.07;102471.97;5094953;28;20846;-57
2023/04/18 01:41:31;;;;;;;25.90;18.85;;;;;;;5.43;98.48;102472.09;5095163;28;20024;-58
2023/04/18 01:43:57;;;;;;;26.67;19.35;;;;;;;5.34;98.92;102466.28;5095552;28;20054;-57
2023/04/18 01:46:22;;;;;;;22.48;18.45;;;;;;;5.31;99.22;102465.13;5094356;28;20430;-57
2023/04/18 01:48:47;;;;;;;24.80;18.88;;;;;;;5.23;99.50;102468.00;5095597;28;20357;-57
2023/04/18 01:51:12;;;;;;;24.77;19.02;;;;;;;5.20;99.19;102467.78;5095613;28;20413;-57
2023/04/18 01:53:38;;;;;;;24.20;18.73;;;;;;;5.13;99.71;102465.53;5093969;28;20035;-58
2023/04/18 01:56:03;;;;;;;24.23;19.42;;;;;;;5.06;99.76;102458.13;5094959;28;20028;-57
2023/04/18 01:58:29;;;;;;;22.90;18.65;;;;;;;5.00;100.00;102463.66;5094934;28;20024;-58
2023/04/18 02:00:56;;;;;;;27.08;19.83;;;;;;;5.03;99.94;102473.25;5094199;28;20020;-57
2023/04/18 02:03:22;;;;;;;29.75;20.63;;;;;;;4.95;100.00;102468.41;5095016;28;20111;-57
2023/04/18 02:05:47;;;;;;;24.73;19.35;;;;;;;4.89;100.00;102467.94;5094851;28;20115;-57
2023/04/18 02:08:13;;;;;;;24.95;20.08;;;;;;;4.82;100.00;102467.34;5094156;28;20103;-57
2023/04/18 02:10:38;;;;;;;23.73;19.88;;;;;;;4.82;100.00;102467.34;5094769;28;20472;-57
2023/04/18 02:13:05;;;;;;;23.50;19.80;;;;;;;4.74;100.00;102465.06;5094666;28;20074;-57
2023/04/18 02:15:31;;;;;;;31.80;20.65;;;;;;;4.71;100.00;102461.38;5094086;28;20093;-58
2023/04/18 02:17:58;;;;;;;24.85;20.48;;;;;;;4.72;100.00;102458.94;5094675;28;20028;-57
2023/04/18 02:20:25;;;;;;;22.92;18.85;;;;;;;4.74;100.00;102466.75;5094402;28;20047;-58
2023/04/18 02:22:50;;;;;;;24.60;19.92;;;;;;;4.69;100.00;102462.94;5093458;28;20420;-57
2023/04/18 02:25:17;;;;;;;28.73;20.23;;;;;;;4.65;100.00;102460.88;5093609;28;20077;-57
2023/04/18 02:27:42;;;;;;;24.90;19.42;;;;;;;4.61;100.00;102460.63;5094435;28;20084;-58
2023/04/18 02:30:08;;;;;;;25.33;18.95;;;;;;;4.59;100.00;102457.06;5094004;28;20020;-57
2023/04/18 02:32:33;;;;;;;25.02;19.33;;;;;;;4.54;100.00;102455.78;5094166;28;20383;-57
2023/04/18 02:34:58;;;;;;;25.60;19.50;;;;;;;4.50;100.00;102458.00;5094218;28;20032;-57
2023/04/18 02:37:24;;;;;;;23.67;19.23;;;;;;;4.44;100.00;102458.38;5093555;28;20019;-57
2023/04/18 02:39:49;;;;;;;27.83;20.35;;;;;;;4.35;100.00;102450.00;5094454;28;20016;-57
2023/04/18 02:42:15;;;;;;;25.05;20.45;;;;;;;4.29;100.00;102458.06;5093497;28;20383;-57
2023/04/18 02:44:40;;;;;;;23.48;19.58;;;;;;;4.28;100.00;102457.16;5094124;28;20020;-57
2023/04/18 02:47:05;;;;;;;29.58;20.98;;;;;;;4.28;100.00;102456.25;5094431;28;20025;-58
2023/04/18 02:49:31;;;;;;;23.75;19.73;;;;;;;4.22;100.00;102461.78;5093325;28;20052;-58
2023/04/18 02:51:56;;;;;;;25.23;19.63;;;;;;;4.22;100.00;102463.41;5093950;28;20035;-57
2023/04/18 02:54:23;;;;;;;24.65;19.92;;;;;;;4.11;100.00;102455.78;5093826;28;20429;-57
2023/04/18 02:56:49;;;;;;;25.08;20.30;;;;;;;4.11;100.00;102452.34;5093426;28;20027;-57
2023/04/18 02:59:14;;;;;;;24.83;19.80;;;;;;;4.08;100.00;102452.06;5093898;28;20024;-57
2023/04/18 03:01:39;;;;;;;24.67;20.85;;;;;;;4.00;100.00;102451.44;5093626;28;20119;-57
2023/04/18 03:04:04;;;;;;;24.35;19.98;;;;;;;4.01;100.00;102454.91;5093101;28;20024;-57
2023/04/18 03:06:30;;;;;;;25.48;20.40;;;;;;;3.95;100.00;102456.19;5093210;28;20078;-58
2023/04/18 03:08:56;;;;;;;29.33;20.70;;;;;;;3.87;100.00;102451.22;5093347;28;20035;-57
2023/04/18 03:11:21;;;;;;;25.60;19.95;;;;;;;3.85;100.00;102456.19;5092232;28;20094;-57
2023/04/18 03:13:46;;;;;;;27.33;20.40;;;;;;;3.87;100.00;102453.78;5093168;28;20028;-57
2023/04/18 03:16:12;;;;;;;27.02;20.02;;;;;;;3.78;100.00;102453.88;5093654;28;20032;-57
2023/04/18 03:18:37;;;;;;;25.02;19.80;;;;;;;3.73;100.00;102453.53;5092934;28;20032;-58
2023/04/18 03:21:03;;;;;;;24.45;19.52;;;;;;;3.75;100.00;102453.66;5093806;28;20384;-57
2023/04/18 03:23:28;;;;;;;28.38;19.02;;;;;;;3.70;100.00;102457.47;5093006;28;20036;-58
2023/04/18 03:25:53;;;;;;;27.52;20.35;;;;;;;3.66;100.00;102455.44;5092939;28;20069;-57
2023/04/18 03:28:19;;;;;;;26.40;20.27;;;;;;;3.65;100.00;102463.84;5093466;28;20471;-57
2023/04/18 03:30:44;;;;;;;25.17;20.27;;;;;;;3.58;100.00;102458.22;5093203;28;20372;-57
2023/04/18 03:33:09;;;;;;;23.10;19.25;;;;;;;3.61;100.00;102455.91;5092944;28;20047;-57
2023/04/18 03:35:35;;;;;;;25.05;19.42;;;;;;;3.64;100.00;102455.28;5093356;28;20024;-57
2023/04/18 03:38:00;;;;;;;27.15;20.42;;;;;;;3.58;100.00;102458.22;5092402;28;20070;-57
2023/04/18 03:40:25;;;;;;;25.45;20.45;;;;;;;3.55;100.00;102457.06;5092137;28;20028;-57
2023/04/18 03:42:51;;;;;;;23.80;20.10;;;;;;;3.52;100.00;102461.94;5093095;28;20109;-57
2023/04/18 03:45:16;;;;;;;25.20;19.92;;;;;;;3.56;100.00;102454.66;5092738;28;20153;-58
2023/04/18 03:47:41;;;;;;;24.17;19.20;;;;;;;3.54;100.00;102460.38;5093387;28;20031;-58
2023/04/18 03:50:07;;;;;;;22.80;19.20;;;;;;;3.50;100.00;102459.25;5093026;28;20114;-57
2023/04/18 03:52:32;;;;;;;24.80;19.90;;;;;;;3.48;100.00;102465.88;5091833;28;20035;-58
2023/04/18 03:54:58;;;;;;;27.98;20.25;;;;;;;3.45;100.00;102468.16;5093082;28;20028;-57
2023/04/18 03:57:23;;;;;;;22.27;19.25;;;;;;;3.41;100.00;102461.91;5092683;28;20035;-57
2023/04/18 03:59:48;;;;;;;24.17;18.83;;;;;;;3.46;100.00;102467.41;5092586;28;20085;-57
2023/04/18 04:02:14;;;;;;;22.25;18.70;;;;;;;3.48;100.00;102470.97;5092844;28;20044;-57
2023/04/18 04:04:39;;;;;;;26.05;19.23;;;;;;;3.44;100.00;102468.91;5092905;28;20036;-58
2023/04/18 04:07:04;;;;;;;24.70;20.08;;;;;;;3.43;100.00;102467.13;5092017;28;20016;-57
2023/04/18 04:09:30;;;;;;;23.33;18.98;;;;;;;3.40;100.00;102466.88;5092705;28;20032;-57
2023/04/18 04:11:55;;;;;;;21.80;18.17;;;;;;;3.38;100.00;102465.84;5092971;28;20384;-57
2023/04/18 04:14:21;;;;;;;23.15;18.60;;;;;;;3.38;100.00;102460.75;5091827;28;20103;-57
2023/04/18 04:16:47;;;;;;;24.33;19.60;;;;;;;3.38;100.00;102460.75;5093081;28;20067;-57
2023/04/18 04:19:13;;;;;;;23.63;19.10;;;;;;;3.33;100.00;102459.47;5095125;28;20055;-57
2023/04/18 04:21:39;;;;;;;26.27;20.13;;;;;;;3.29;100.00;102459.22;5096022;28;20042;-57
2023/04/18 04:24:05;;;;;;;25.33;19.63;;;;;;;3.23;100.00;102463.78;5096822;28;20460;-57
2023/04/18 04:26:31;;;;;;;24.33;19.30;;;;;;;3.20;100.00;102472.81;5096364;28;20028;-57
2023/04/18 04:28:56;;;;;;;22.92;18.52;;;;;;;3.24;100.00;102467.22;5096516;28;20050;-57
2023/04/18 04:31:22;;;;;;;33.58;20.02;;;;;;;3.24;100.00;102465.59;5096770;28;20032;-57
2023/04/18 04:33:47;;;;;;;24.52;19.52;;;;;;;3.20;100.00;102463.53;5096496;28;20043;-57
2023/04/18 04:36:17;;;;;;;25.00;19.98;;;;;;;3.18;100.00;102467.59;5096424;28;20027;-57
2023/04/18 04:38:43;;;;;;;24.58;19.83;;;;;;;3.19;100.00;102461.75;5096435;28;20463;-57
2023/04/18 04:41:09;;;;;;;24.80;20.45;;;;;;;3.17;100.00;102467.47;5096512;28;20020;-57
2023/04/18 04:43:34;;;;;;;26.08;19.13;;;;;;;3.18;100.00;102466.72;5095987;28;20406;-57
2023/04/18 04:46:02;;;;;;;24.20;18.85;;;;;;;3.18;100.00;102465.03;5096871;28;20098;-57
2023/04/18 04:48:28;;;;;;;23.05;19.33;;;;;;;3.20;100.00;102466.09;5096123;28;20020;-57
2023/04/18 04:50:55;;;;;;;22.90;20.08;;;;;;;3.15;100.00;102476.63;5095990;28;20032;-57
2023/04/18 04:53:21;;;;;;;23.70;19.77;;;;;;;3.12;100.00;102469.59;5095452;28;20028;-57
2023/04/18 04:55:47;;;;;;;23.58;19.25;;;;;;;3.08;100.00;102477.75;5095379;28;20379;-57
2023/04/18 04:58:12;;;;;;;28.42;20.15;;;;;;;3.08;100.00;102478.63;5096469;28;20035;-57
2023/04/18 05:00:38;;;;;;;24.98;19.85;;;;;;;3.05;100.00;102470.75;5096229;28;20371;-57
2023/04/18 05:03:03;;;;;;;24.45;20.20;;;;;;;3.07;100.00;102478.50;5095361;28;20055;-56
2023/04/18 05:05:29;;;;;;;25.52;19.38;;;;;;;3.09;100.00;102480.44;5095951;28;20379;-57
2023/04/18 05:07:54;;;;;;;25.27;19.70;;;;;;;3.08;100.00;102485.41;5095903;28;20040;-56
2023/04/18 05:10:20;;;;;;;28.48;19.52;;;;;;;3.12;100.00;102479.81;5094964;28;20077;-56
2023/04/18 05:12:45;;;;;;;24.13;19.83;;;;;;;3.15;100.00;102486.81;5096243;28;20055;-56
2023/04/18 05:15:11;;;;;;;27.80;21.13;;;;;;;3.16;100.00;102479.28;5096039;28;20120;-57
2023/04/18 05:17:37;;;;;;;23.33;20.05;;;;;;;3.18;100.00;102479.47;5095305;28;20489;-57
2023/04/18 05:20:03;;;;;;;27.30;19.73;;;;;;;3.20;100.00;102489.00;5095974;28;20039;-57
2023/04/18 05:22:29;;;;;;;26.67;19.42;;;;;;;3.26;100.00;102481.00;5094866;28;20040;-57
2023/04/18 05:24:54;;;;;;;25.30;19.25;;;;;;;3.28;100.00;102487.13;5095278;28;20024;-57
2023/04/18 05:27:20;;;;;;;21.05;18.83;;;;;;;3.35;100.00;102483.44;5095777;28;20021;-56
2023/04/18 05:29:46;;;;;;;22.38;18.27;;;;;;;3.42;100.00;102485.72;5094927;28;20024;-57
2023/04/18 05:32:12;;;;;;;24.30;18.65;;;;;;;3.49;100.00;102484.63;5095234;28;20024;-56
2023/04/18 05:34:37;;;;;;;23.85;19.02;;;;;;;3.58;100.00;102483.72;5095370;28;20078;-57
2023/04/18 05:37:02;;;;;;;24.27;18.90;;;;;;;3.62;100.00;102488.31;5095399;28;20095;-56
2023/04/18 05:39:27;;;;;;;23.70;19.05;;;;;;;3.73;100.00;102490.88;5094742;28;20379;-57
2023/04/18 05:41:53;;;;;;;20.77;18.05;;;;;;;3.81;100.00;102494.97;5095681;28;20124;-57
2023/04/18 05:44:18;;;;;;;22.02;18.70;;;;;;;3.89;100.00;102491.38;5095161;28;20047;-57
2023/04/18 05:46:44;;;;;;;28.20;18.85;;;;;;;3.98;100.00;102501.47;5095158;28;20024;-57
2023/04/18 05:49:09;;;;;;;24.15;18.35;;;;;;;4.10;100.00;102496.47;5095655;28;20116;-57
2023/04/18 05:51:35;;;;;;;24.52;18.20;;;;;;;4.25;100.00;102500.28;5094845;28;20068;-57
2023/04/18 05:54:00;;;;;;;21.85;18.00;;;;;;;4.39;100.00;102510.72;5094759;28;20063;-58
2023/04/18 05:56:25;;;;;;;25.08;18.55;;;;;;;4.49;100.00;102508.16;5094920;28;20024;-57
2023/04/18 05:58:51;;;;;;;22.20;17.80;;;;;;;4.58;99.37;102514.03;5095067;28;20107;-57
2023/04/18 06:01:20;;;;;;;24.95;17.30;;;;;;;4.70;99.61;102513.22;5094243;28;20044;-57
2023/04/18 06:03:45;;;;;;;23.50;17.42;;;;;;;4.79;98.83;102508.88;5095254;28;20032;-57
2023/04/18 06:06:11;;;;;;;22.75;17.60;;;;;;;4.88;99.18;102513.78;5094466;28;20016;-58
2023/04/18 06:08:38;;;;;;;20.80;17.58;;;;;;;4.93;98.06;102515.03;5094884;28;20020;-57
2023/04/18 06:11:03;;;;;;;19.75;17.13;;;;;;;4.98;98.80;102518.84;5095197;28;20031;-57
2023/04/18 06:13:29;;;;;;;25.45;17.30;;;;;;;5.02;97.75;102517.44;5094095;28;20395;-57
2023/04/18 06:15:54;;;;;;;24.25;18.33;;;;;;;5.14;98.05;102517.50;5094898;28;20016;-57
2023/04/18 06:18:20;;;;;;;22.75;17.67;;;;;;;5.30;97.53;102515.41;5094200;28;20032;-57
2023/04/18 06:20:45;;;;;;;22.55;18.15;;;;;;;5.49;97.72;102516.81;5094408;28;20024;-57
2023/04/18 06:23:10;;;;;;;20.52;16.20;;;;;;;5.63;95.71;102515.31;5094544;28;20471;-57
2023/04/18 06:25:36;;;;;;;21.73;15.98;;;;;;;5.79;95.63;102518.28;5094109;28;20067;-57
2023/04/18 06:28:01;;;;;;;23.58;16.67;;;;;;;5.87;94.50;102527.41;5094291;28;20024;-56
2023/04/18 06:30:27;;;;;;;20.23;16.83;;;;;;;5.89;94.58;102519.88;5094385;28;20061;-57
2023/04/18 06:32:52;;;;;;;19.77;16.38;;;;;;;5.92;94.11;102518.41;5094495;28;20074;-56
2023/04/18 06:35:17;;;;;;;19.67;15.88;;;;;;;6.04;94.24;102525.28;5093766;28;20024;-57
2023/04/18 06:37:43;;;;;;;21.83;15.82;;;;;;;6.14;93.49;102527.75;5093943;28;20032;-57
2023/04/18 06:40:10;;;;;;;19.90;16.40;;;;;;;6.27;92.86;102529.56;5094166;28;20471;-57
2023/04/18 06:42:36;;;;;;;21.77;16.80;;;;;;;6.40;93.71;102521.09;5092631;28;20177;-57
2023/04/18 06:45:02;;;;;;;23.38;15.63;;;;;;;6.56;93.06;102528.25;5094437;28;20486;-57
2023/04/18 06:47:28;;;;;;;20.52;16.05;;;;;;;6.61;91.98;102532.06;5093836;28;20027;-57
2023/04/18 06:49:53;;;;;;;19.00;15.70;;;;;;;6.59;92.10;102523.34;5094042;28;20032;-57
2023/04/18 06:52:18;;;;;;;19.08;15.60;;;;;;;6.63;92.82;102530.47;5093455;28;20107;-57
2023/04/18 06:54:44;;;;;;;19.42;15.35;;;;;;;6.65;91.39;102535.69;5093803;28;20024;-57
2023/04/18 06:57:09;;;;;;;19.35;14.93;;;;;;;6.71;90.39;102539.63;5093770;28;20356;-56
2023/04/18 06:59:36;;;;;;;18.58;14.65;;;;;;;6.76;90.42;102537.38;5093874;28;20086;-57
2023/04/18 07:02:01;;;;;;;18.20;15.13;;;;;;;6.94;89.77;102540.38;5093363;28;20522;-56
2023/04/18 07:04:26;;;;;;;17.05;14.45;;;;;;;7.06;89.08;102537.78;5093215;28;20036;-57
2023/04/18 07:06:52;;;;;;;21.30;14.57;;;;;;;7.19;88.93;102534.41;5093627;28;20027;-57
2023/04/18 07:09:17;;;;;;;18.20;14.07;;;;;;;7.19;91.07;102545.59;5092561;28;20390;-57
2023/04/18 07:11:42;;;;;;;17.92;14.57;;;;;;;7.16;90.20;102544.47;5093721;28;20024;-57
2023/04/18 07:14:07;;;;;;;17.08;14.57;;;;;;;7.22;90.40;102532.09;5093800;28;20028;-57
2023/04/18 07:16:33;;;;;;;19.50;14.88;;;;;;;7.34;90.04;102538.06;5092577;28;20077;-57
2023/04/18 07:18:58;;;;;;;19.05;14.40;;;;;;;7.27;89.28;102548.69;5093759;28;20024;-57
2023/04/18 07:21:24;;;;;;;19.80;14.48;;;;;;;7.29;89.08;102546.22;5098829;28;20023;-57
2023/04/18 07:23:49;;;;;;;18.63;14.65;;;;;;;7.27;88.85;102543.56;5112957;28;20447;-57
2023/04/18 07:26:15;;;;;;;18.38;15.13;;;;;;;7.37;89.58;102548.56;5114055;28;20020;-56
2023/04/18 07:28:40;;;;;;;18.80;14.90;;;;;;;7.52;89.09;102546.16;5113408;28;20023;-56
2023/04/18 07:31:09;;;;;;;16.52;14.43;;;;;;;7.68;88.58;102547.22;5113114;28;20094;-57
2023/04/18 07:33:35;;;;;;;17.60;13.60;;;;;;;7.67;87.03;102546.34;5113342;28;20023;-57
2023/04/18 07:36:01;;;;;;;18.25;14.10;;;;;;;7.60;87.48;102554.38;5113443;28;20022;-56
2023/04/18 07:38:27;;;;;;;17.52;14.07;;;;;;;7.62;86.84;102557.97;5112920;28;20020;-57
2023/04/18 07:40:57;;;;;;;18.42;13.68;;;;;;;7.69;87.22;102559.25;5113729;28;20433;-56
2023/04/18 07:43:22;;;;;;;17.95;13.93;;;;;;;7.72;87.32;102555.25;5111890;28;20495;-55
2023/04/18 07:45:47;;;;;;;16.85;14.23;;;;;;;7.80;87.77;102555.78;5111843;28;20023;-57
2023/04/18 07:48:13;;;;;;;18.65;13.60;;;;;;;7.98;87.44;102558.69;5112316;28;20024;-56
2023/04/18 07:50:38;;;;;;;17.10;13.70;;;;;;;8.03;86.50;102556.41;5111641;28;20413;-56
2023/04/18 07:53:04;;;;;;;18.48;13.30;;;;;;;8.00;85.24;102561.34;5111888;28;20047;-56
2023/04/18 07:55:29;;;;;;;17.65;13.27;;;;;;;8.04;87.00;102561.69;5112325;28;20064;-56
2023/04/18 07:57:54;;;;;;;16.95;12.82;;;;;;;8.16;86.64;102568.41;5112816;28;20062;-56
2023/04/18 08:00:20;;;;;;;16.50;13.98;;;;;;;8.36;86.24;102562.03;5111903;28;20024;-56
2023/04/18 08:02:45;;;;;;;17.75;13.35;;;;;;;8.58;85.56;102566.94;5112984;28;20134;-56
2023/04/18 08:05:11;;;;;;;16.60;13.63;;;;;;;8.51;85.04;102563.09;5111912;28;20044;-55
2023/04/18 08:07:37;;;;;;;15.40;12.90;;;;;;;8.96;85.39;102563.41;5111370;28;20049;-56
2023/04/18 08:10:02;;;;;;;17.73;12.80;;;;;;;9.00;82.30;102561.88;5112927;28;20463;-56
2023/04/18 08:12:28;;;;;;;15.52;13.02;;;;;;;9.02;83.34;102562.88;5112746;28;20023;-56
2023/04/18 08:14:53;;;;;;;15.70;12.77;;;;;;;9.14;82.52;102568.81;5112752;28;20522;-56
2023/04/18 08:17:18;;;;;;;17.02;12.77;;;;;;;9.19;82.79;102572.56;5112259;28;20028;-56
2023/04/18 08:19:44;;;;;;;14.82;12.90;;;;;;;9.18;82.80;102569.88;5112373;28;20031;-54
2023/04/18 08:22:10;;;;;;;14.30;12.80;;;;;;;9.19;82.61;102576.81;5112468;28;20104;-56
2023/04/18 08:24:39;;;;;;;15.18;12.10;;;;;;;9.03;82.12;102577.53;5111583;28;20059;-56
2023/04/18 08:27:04;;;;;;;13.45;11.68;;;;;;;9.19;82.88;102571.66;5112038;28;20035;-56
2023/04/18 08:29:30;;;;;;;15.23;12.38;;;;;;;9.23;81.54;102571.97;5112868;28;20024;-57
2023/04/18 08:31:55;;;;;;;16.45;12.73;;;;;;;9.09;81.33;102575.38;5112929;28;20024;-56
2023/04/18 08:34:20;;;;;;;18.27;12.07;;;;;;;8.97;81.82;102570.31;5112260;28;20151;-57
2023/04/18 08:36:46;;;;;;;17.80;13.40;;;;;;;8.97;83.13;102574.56;5112685;28;20028;-57
2023/04/18 08:39:11;;;;;;;14.85;12.57;;;;;;;9.03;82.65;102569.81;5112487;28;20030;-56
2023/04/18 08:41:40;;;;;;;17.05;12.68;;;;;;;9.05;81.95;102571.69;5112263;28;20022;-56
2023/04/18 08:44:06;;;;;;;16.95;11.82;;;;;;;9.14;83.27;102568.81;5113027;28;20031;-56
2023/04/18 08:46:36;;;;;;;13.43;11.95;;;;;;;9.51;82.87;102565.06;5112413;28;20490;-57
2023/04/18 08:49:03;;;;;;;15.45;11.50;;;;;;;9.60;81.16;102568.22;5112323;28;20020;-57
2023/04/18 08:51:32;;;;;;;14.32;11.75;;;;;;;9.95;80.53;102569.44;5112670;28;20020;-57
2023/04/18 08:54:01;;;;;;;13.75;12.25;;;;;;;10.36;80.25;102554.69;5112335;28;20035;-57
2023/04/18 08:56:27;;;;;;;14.07;11.18;;;;;;;10.84;78.21;102555.69;5112095;28;20328;-57
2023/04/18 08:58:54;;;;;;;15.40;12.45;;;;;;;11.08;76.37;102552.72;5113074;28;20527;-57
2023/04/18 09:01:20;;;;;;;13.38;11.98;;;;;;;11.00;73.38;102553.97;5111313;28;20120;-56
2023/04/18 09:03:45;;;;;;;15.55;11.75;;;;;;;11.14;75.46;102547.91;5111886;28;20069;-57
2023/04/18 09:06:17;;;;;;;14.88;11.38;;;;;;;11.20;72.53;102545.63;5114246;28;20032;-56
2023/04/18 09:08:55;;;;;;;14.88;12.05;;;;;;;11.06;73.12;102554.31;5115236;28;20023;-56
2023/04/18 09:11:28;;;;;;;13.00;11.13;;;;;;;10.75;73.17;102552.59;5115275;28;20024;-57
2023/04/18 09:13:56;;;;;;;14.18;11.70;;;;;;;10.74;73.44;102549.94;5115147;28;20043;-57
2023/04/18 09:16:22;;;;;;;14.10;11.75;;;;;;;10.96;74.73;102541.72;5115135;28;20107;-57
2023/04/18 09:19:16;;;;;;;13.20;11.32;;;;;;;11.19;74.43;102538.72;5115488;28;20387;-57
2023/04/18 09:21:46;;;;;;;14.18;11.15;;;;;;;11.38;73.27;102544.84;5115620;28;20031;-57
2023/04/18 09:24:22;;;;;;;14.65;10.80;;;;;;;11.42;71.33;102544.22;5114733;28;20072;-57
2023/04/18 09:26:48;;;;;;;12.95;10.68;;;;;;;11.17;71.09;102547.19;5115555;28;20055;-57
2023/04/18 09:29:16;;;;;;;13.45;10.50;;;;;;;11.00;70.03;102548.81;5115867;28;20535;-58
2023/04/18 09:31:59;;;;;;;13.25;10.48;;;;;;;10.75;71.29;102552.59;5115723;28;20055;-58
2023/04/18 09:34:25;;;;;;;11.27;9.88;;;;;;;10.76;71.13;102548.34;5115876;28;20024;-57
2023/04/18 09:37:08;;;;;;;11.10;9.90;;;;;;;10.85;71.43;102554.91;5115484;28;20027;-57
2023/04/18 09:39:33;;;;;;;15.23;10.10;;;;;;;10.81;70.43;102552.94;5114671;28;20421;-58
2023/04/18 09:41:59;;;;;;;12.55;9.00;;;;;;;11.02;69.83;102547.22;5115368;28;20081;-57
2023/04/18 09:44:25;;;;;;;11.70;9.45;;;;;;;11.33;69.59;102538.56;5115092;28;20069;-58
2023/04/18 09:46:50;;;;;;;12.43;9.63;;;;;;;11.41;68.14;102545.00;5115950;28;20426;-57
2023/04/18 09:49:16;;;;;;;10.32;8.52;;;;;;;11.55;66.23;102534.53;5115287;28;20085;-57
2023/04/18 09:51:43;;;;;;;10.38;8.02;;;;;;;11.73;67.37;102535.50;5115037;28;20027;-58
2023/04/18 09:54:12;;;;;;;11.43;8.20;;;;;;;11.75;67.67;102541.63;5115415;28;20031;-58
2023/04/18 09:56:42;;;;;;;12.77;8.38;;;;;;;11.78;65.35;102538.31;5115450;28;20016;-57
2023/04/18 09:59:09;;;;;;;10.88;8.35;;;;;;;12.33;64.42;102529.91;5115087;28;20028;-57
2023/04/18 10:01:35;;;;;;;12.27;9.23;;;;;;;12.04;63.47;102542.25;5115018;28;20043;-57
2023/04/18 10:04:03;;;;;;;10.25;8.10;;;;;;;11.76;65.15;102539.94;5115211;28;20147;-57
2023/04/18 10:06:28;;;;;;;;;;;;;;;11.94;68.00;102542.56;5115208;28;20028;-57
2023/04/18 10:08:55;;;;;;;11.18;8.15;;;;;;;11.44;67.45;102542.59;5115622;28;20415;-57
2023/04/18 10:11:20;;;;;;;9.73;7.95;;;;;;;11.29;67.99;102541.78;5114783;28;20024;-58
2023/04/18 10:13:48;;;;;;;11.25;8.20;;;;;;;11.17;68.00;102550.63;5114659;28;20389;-57
2023/04/18 10:16:13;;;;;;;10.27;7.63;;;;;;;11.02;66.44;102544.63;5115215;28;20019;-57
2023/04/18 10:18:39;;;;;;;9.10;7.15;;;;;;;11.22;66.62;102550.00;5114798;28;20047;-57
2023/04/18 10:21:04;;;;;;;8.00;6.60;;;;;;;11.15;65.70;102549.66;5114542;28;20023;-57
2023/04/18 10:23:29;;;;;;;6.78;5.30;;;;;;;11.56;64.39;102542.38;5114567;28;20107;-57
2023/04/18 10:25:55;;;;;;;6.40;4.97;;;;;;;11.53;63.41;102548.25;5115074;28;20028;-58
2023/04/18 10:28:20;;;;;;;11.05;6.45;;;;;;;11.46;63.26;102535.81;5114356;28;20744;-58
2023/04/18 10:30:45;;;;;;;7.55;5.78;;;;;;;11.49;65.08;102543.75;5115096;28;20023;-57
2023/04/18 10:33:39;;;;;;;9.17;5.63;;;;;;;11.39;65.02;102538.91;5114697;28;20020;-57
2023/04/18 10:36:12;;;;;;;7.97;6.50;;;;;;;11.35;64.80;102548.16;5115107;28;20273;-57
2023/04/18 10:38:46;;;;;;;6.18;5.28;;;;;;;11.41;63.49;102552.75;5113940;28;20467;-57
2023/04/18 10:41:14;;;;;;;8.57;6.22;;;;;;;11.62;64.43;102555.59;5114477;28;20171;-57
2023/04/18 10:46:33;;;;;;;8.27;6.13;;;;;;;11.47;63.07;102549.63;5114204;28;20024;-57
2023/04/18 10:49:25;;;;;;;8.30;6.25;;;;;;;11.55;64.25;102550.91;5114071;28;20024;-57
2023/04/18 10:51:55;;;;;;;8.82;6.60;;;;;;;11.70;64.94;102543.97;5114495;28;20042;-58
2023/04/18 10:54:45;;;;;;;8.68;6.95;;;;;;;12.01;64.19;102542.13;5113936;28;20019;-57
2023/04/18 10:57:12;;;;;;;7.93;6.80;;;;;;;11.91;62.53;102542.44;5114573;28;20032;-56
2023/04/18 10:59:39;;;;;;;9.65;7.25;;;;;;;11.71;63.85;102547.47;5114010;28;20028;-57
2023/04/18 11:02:32;;;;;;;8.60;7.65;;;;;;;11.48;65.72;102530.75;5112208;28;20051;-57
2023/04/18 11:05:00;;;;;;;8.77;7.25;;;;;;;11.46;64.13;102540.09;5113991;28;20047;-57
2023/04/18 11:07:32;;;;;;;10.18;8.07;;;;;;;11.55;65.80;102540.59;5113404;28;20015;-57
2023/04/18 11:09:58;;;;;;;8.95;7.53;;;;;;;11.64;66.80;102535.91;5113791;28;20034;-57
2023/04/18 11:12:23;;;;;;;9.73;8.38;;;;;;;11.83;65.50;102540.31;5113931;28;20016;-57
2023/04/18 11:14:53;;;;;;;9.48;8.48;;;;;;;11.88;65.00;102547.41;5113923;28;20394;-57